Thunder radar more information blitzortung!


avis per Pluja more information rain snow radar


Visita la nostra xarxa de llocs de meteo:

Template documentation
and downloads

And another site



Rain From: 15-11-2018 14:00 Until: 23:59 warning for: Rain Level: Orange info button

Pagina Historial Weather Underground text

Diari Resum Octubre 26, 2017 Unitats:  Imperial    Mètric   Tant
« Previous Dia
SegĂźent Dia »
Diari Setmana Mensual Anual Personalitzada
  Maxima: Minima: Media:
Temperatura: TemperatureC °F 11.6 °F 18.2 °F
Punt de rosada: DewpointC °F 10.0 °F 14.7 °F
Humitat: Humidity % 66 % 80 %
Wind Speed: WindSpeedKMH mph 0.0 mph 3.5 mph
RĂ fegues de vent: WindSpeedGustKMH mph - -
Vent:- - SSE
Pression baro: PressurehPa in 1024.9 in -
Precipitacions: 0.0 in    
Historical Graphs
 
 
Dades de taula per Octubre 26, 2017
Temps Temperatura Punt de rosada Pression baro Vent Wind Speed RĂ fegues de vent Humitat Rainfall Rate (Hourly)
TemperatureC °F DewpointC °F PressurehPa in Calm     Humidity % HourlyPrecipMM in
00:03 15.3 °F 12.4 °F 1026.0 in Calm     83 % 0.0 in
00:08 15.2 °F 12.3 °F 1026.0 in Calm     83 % 0.0 in
00:13 15.3 °F 12.6 °F 1026.0 in Calm     84 % 0.0 in
00:18 15.2 °F 12.5 °F 1026.0 in Calm     84 % 0.0 in
00:23 15.2 °F 12.5 °F 1026.0 in Calm     84 % 0.0 in
00:28 15.2 °F 12.5 °F 1027.0 in Calm     84 % 0.0 in
02:40 11.9 °F 10.3 °F 1026.0 in Calm     90 % 0.0 in
02:50 11.9 °F 10.3 °F 1026.0 in NNW 1.6 mph 1.6 mph 90 % 0.0 in
03:00 11.7 °F 10.1 °F 1026.0 in Calm   1.6 mph 90 % 0.0 in
03:10 11.7 °F 10.1 °F 1026.0 in Calm     90 % 0.0 in
03:20 11.7 °F 10.1 °F 1027.0 in Calm     90 % 0.0 in
03:30 11.8 °F 10.2 °F 1026.0 in Calm     90 % 0.0 in
03:40 11.9 °F 10.5 °F 1026.0 in Calm     91 % 0.0 in
03:50 12.0 °F 10.6 °F 1027.0 in Calm     91 % 0.0 in
04:00 12.0 °F 10.6 °F 1027.0 in Calm     91 % 0.0 in
04:10 11.7 °F 10.1 °F 1027.0 in Calm     90 % 0.0 in
04:20 11.6 °F 10.0 °F 1027.0 in Calm   1.6 mph 90 % 0.0 in
04:30 11.7 °F 10.3 °F 1028.0 in Calm   1.6 mph 91 % 0.0 in
04:40 11.8 °F 10.4 °F 1028.0 in Calm     91 % 0.0 in
04:50 12.1 °F 10.7 °F 1028.0 in Calm     91 % 0.0 in
05:00 12.1 °F 10.7 °F 1028.0 in Calm   1.6 mph 91 % 0.0 in
05:10 12.4 °F 11.1 °F 1028.0 in Calm     92 % 0.0 in
10:11 12.7 °F 11.4 °F 1028.0 in Calm     92 % 0.0 in
10:16 12.8 °F 11.6 °F 1028.0 in WNW 1.9 mph   92 % 0.0 in
10:21 12.9 °F 11.6 °F 1028.0 in Calm     92 % 0.0 in
10:26 13.0 °F 11.7 °F 1028.0 in Calm     92 % 0.0 in
10:31 13.2 °F 12.1 °F 1028.0 in Calm     93 % 0.0 in
10:36 13.3 °F 12.2 °F 1028.0 in Calm     93 % 0.0 in
10:41 13.4 °F 12.3 °F 1028.0 in ENE 1.9 mph 1.9 mph 93 % 0.0 in
10:46 13.4 °F 12.3 °F 1028.0 in SE 3.5 mph   93 % 0.0 in
10:51 13.5 °F 12.4 °F 1028.0 in ESE 1.9 mph 1.9 mph 93 % 0.0 in
10:56 13.6 °F 12.5 °F 1028.0 in East 1.9 mph   93 % 0.0 in
11:01 13.7 °F 12.4 °F 1028.0 in East 3.9 mph 3.9 mph 92 % 0.0 in
11:06 13.6 °F 12.3 °F 1028.0 in NE 3.7 mph 3.7 mph 92 % 0.0 in
11:11 13.7 °F 12.4 °F 1028.0 in ENE 5.6 mph 5.6 mph 92 % 0.0 in
11:16 13.8 °F 12.5 °F 1028.0 in NE 3.7 mph 3.7 mph 92 % 0.0 in
11:21 14.0 °F 12.7 °F 1028.0 in NE 3.9 mph 3.9 mph 92 % 0.0 in
11:26 14.3 °F 13.0 °F 1028.0 in NW 1.9 mph 2.6 mph 92 % 0.0 in
11:31 14.4 °F 13.1 °F 1028.0 in WNW 2.6 mph 2.6 mph 92 % 0.0 in
11:36 14.6 °F 13.3 °F 1028.0 in North 3.9 mph 3.9 mph 92 % 0.0 in
11:46 15.1 °F 13.8 °F 1028.0 in WSW 5.3 mph 5.3 mph 92 % 0.0 in
11:51 15.2 °F 13.9 °F 1028.0 in NNW 2.6 mph 2.6 mph 92 % 0.0 in
11:56 15.5 °F 14.2 °F 1028.0 in WNW 2.6 mph 2.6 mph 92 % 0.0 in
12:01 15.7 °F 14.4 °F 1028.0 in WSW 4.7 mph 4.7 mph 92 % 0.0 in
12:06 15.8 °F 14.5 °F 1028.0 in WNW 1.9 mph   92 % 0.0 in
12:11 15.9 °F 14.4 °F 1028.0 in WSW 5.6 mph 5.6 mph 91 % 0.0 in
12:16 16.2 °F 14.7 °F 1028.0 in SSE 3.7 mph   91 % 0.0 in
12:21 16.4 °F 14.9 °F 1028.0 in WSW 5.6 mph 5.6 mph 91 % 0.0 in
12:26 16.6 °F 14.9 °F 1028.0 in West 3.7 mph 3.7 mph 90 % 0.0 in
12:31 16.8 °F 15.2 °F 1028.0 in WSW 3.7 mph 3.7 mph 90 % 0.0 in
12:36 17.5 °F 15.8 °F 1028.0 in SW 4.2 mph 4.2 mph 90 % 0.0 in
12:41 17.9 °F 16.1 °F 1027.0 in SSW 3.7 mph 3.7 mph 89 % 0.0 in
12:46 18.3 °F 16.3 °F 1027.0 in SW 3.9 mph 3.9 mph 88 % 0.0 in
12:51 18.6 °F 16.4 °F 1027.0 in WSW 3.9 mph 3.9 mph 87 % 0.0 in
12:56 18.6 °F 16.2 °F 1027.0 in WSW 1.9 mph 2.3 mph 86 % 0.0 in
13:01 18.9 °F 16.3 °F 1027.0 in NNE 2.6 mph 2.6 mph 85 % 0.0 in
13:06 19.0 °F 16.2 °F 1027.0 in West 3.7 mph 3.7 mph 84 % 0.0 in
13:11 19.4 °F 16.4 °F 1027.0 in NE 3.7 mph 3.7 mph 83 % 0.0 in
13:16 19.9 °F 16.7 °F 1027.0 in SSW 5.6 mph 5.6 mph 82 % 0.0 in
13:21 20.1 °F 16.3 °F 1027.0 in SW 3.9 mph 3.9 mph 79 % 0.0 in
13:26 20.2 °F 16.2 °F 1027.0 in East 5.6 mph 5.6 mph 78 % 0.0 in
13:31 20.5 °F 16.6 °F 1027.0 in ESE 3.9 mph 3.9 mph 78 % 0.0 in
13:36 20.7 °F 16.7 °F 1027.0 in SSE 7.4 mph 7.4 mph 78 % 0.0 in
13:41 20.5 °F 16.1 °F 1027.0 in ESE 4.7 mph 4.7 mph 76 % 0.0 in
13:46 20.7 °F 16.3 °F 1027.0 in East 4.2 mph 4.2 mph 76 % 0.0 in
13:47 20.7 °F 16.3 °F 1027.0 in ESE 3.9 mph 3.9 mph 76 % 0.0 in
13:52 20.7 °F 16.1 °F 1027.0 in ESE 5.6 mph 5.6 mph 75 % 0.0 in
13:57 20.8 °F 16.0 °F 1027.0 in ESE 5.6 mph 5.6 mph 74 % 0.0 in
14:02 21.0 °F 16.4 °F 1027.0 in NNE 4.2 mph 4.2 mph 75 % 0.0 in
14:07 21.1 °F 16.5 °F 1027.0 in ENE 5.6 mph 5.6 mph 75 % 0.0 in
14:12 21.3 °F 16.5 °F 1026.0 in ENE 3.7 mph 3.7 mph 74 % 0.0 in
14:17 21.4 °F 16.3 °F 1026.0 in ESE 5.3 mph 5.3 mph 73 % 0.0 in
14:22 21.4 °F 15.9 °F 1026.0 in ESE 5.6 mph 5.6 mph 71 % 0.0 in
14:27 21.6 °F 16.1 °F 1026.0 in ENE 5.6 mph 5.6 mph 71 % 0.0 in
14:32 21.8 °F 16.3 °F 1026.0 in South 5.6 mph 5.6 mph 71 % 0.0 in
14:37 22.2 °F 16.7 °F 1026.0 in SW 5.6 mph 5.6 mph 71 % 0.0 in
14:42 22.4 °F 16.9 °F 1026.0 in SSE 5.3 mph 5.3 mph 71 % 0.0 in
14:47 22.6 °F 17.1 °F 1026.0 in SW 5.6 mph 5.6 mph 71 % 0.0 in
14:52 22.5 °F 16.3 °F 1026.0 in WSW 7.4 mph 7.4 mph 68 % 0.0 in
14:57 22.6 °F 16.6 °F 1024.9 in ESE 6.9 mph 6.9 mph 69 % 0.0 in
15:02 22.2 °F 16.0 °F 1024.9 in ESE 5.6 mph 5.6 mph 68 % 0.0 in
15:07 22.3 °F 16.3 °F 1024.9 in ESE 4.2 mph 4.2 mph 69 % 0.0 in
15:12 22.3 °F 16.3 °F 1026.0 in ESE 7.4 mph 7.4 mph 69 % 0.0 in
15:17 22.5 °F 16.5 °F 1026.0 in East 9.3 mph 9.3 mph 69 % 0.0 in
15:22 22.5 °F 16.3 °F 1026.0 in ESE 7.4 mph 7.4 mph 68 % 0.0 in
15:27 23.1 °F 16.9 °F 1026.0 in SSE 3.9 mph 4.2 mph 68 % 0.0 in
15:37 22.8 °F 16.3 °F 1026.0 in East 11.1 mph 11.1 mph 67 % 0.0 in
15:42 22.9 °F 16.7 °F 1024.9 in ESE 7.4 mph 7.4 mph 68 % 0.0 in
15:47 23.0 °F 16.6 °F 1024.9 in ENE 5.8 mph 5.8 mph 67 % 0.0 in
15:52 23.2 °F 16.5 °F 1024.9 in ESE 5.6 mph 5.6 mph 66 % 0.0 in
15:57 23.2 °F 16.7 °F 1026.0 in NNE 7.4 mph 7.4 mph 67 % 0.0 in
16:02 23.3 °F 16.6 °F 1026.0 in ESE 4.2 mph 4.7 mph 66 % 0.0 in
16:07 23.2 °F 16.5 °F 1026.0 in ESE 5.8 mph 7.2 mph 66 % 0.0 in
16:12 23.1 °F 16.4 °F 1026.0 in East 9.3 mph 9.3 mph 66 % 0.0 in
16:17 23.0 °F 16.6 °F 1026.0 in ESE 9.3 mph 9.3 mph 67 % 0.0 in
16:22 23.0 °F 16.6 °F 1026.0 in East 7.4 mph 7.4 mph 67 % 0.0 in
16:27 23.0 °F 16.6 °F 1026.0 in ESE 9.3 mph 9.3 mph 67 % 0.0 in
16:32 22.8 °F 16.3 °F 1026.0 in ESE 9.7 mph 9.7 mph 67 % 0.0 in
16:37 22.7 °F 16.3 °F 1026.0 in ESE 9.3 mph 9.3 mph 67 % 0.0 in
16:42 22.7 °F 16.3 °F 1026.0 in ESE 11.1 mph 11.1 mph 67 % 0.0 in
16:47 22.6 °F 16.4 °F 1026.0 in ESE 9.3 mph 9.3 mph 68 % 0.0 in
16:52 22.5 °F 16.3 °F 1026.0 in East 14.8 mph 14.8 mph 68 % 0.0 in
16:57 22.5 °F 16.3 °F 1026.0 in East 11.9 mph 11.9 mph 68 % 0.0 in
17:02 22.4 °F 16.2 °F 1026.0 in East 9.3 mph 9.3 mph 68 % 0.0 in
17:07 22.4 °F 16.4 °F 1026.0 in ESE 9.3 mph 9.3 mph 69 % 0.0 in
17:12 22.3 °F 16.3 °F 1026.0 in SE 9.5 mph 9.5 mph 69 % 0.0 in
17:17 22.3 °F 16.3 °F 1026.0 in East 7.4 mph 7.4 mph 69 % 0.0 in
17:22 22.2 °F 16.2 °F 1026.0 in ESE 7.4 mph 7.4 mph 69 % 0.0 in
17:27 22.2 °F 16.4 °F 1026.0 in ESE 5.8 mph 5.8 mph 70 % 0.0 in
17:32 22.2 °F 16.4 °F 1026.0 in East 9.3 mph 9.3 mph 70 % 0.0 in
17:37 22.2 °F 16.4 °F 1026.0 in ENE 5.6 mph 5.6 mph 70 % 0.0 in
17:42 22.2 °F 16.4 °F 1026.0 in ESE 7.4 mph 7.4 mph 70 % 0.0 in
17:47 22.1 °F 16.6 °F 1026.0 in ESE 7.4 mph 7.4 mph 71 % 0.0 in
17:52 22.0 °F 16.5 °F 1026.0 in ESE 5.6 mph 5.6 mph 71 % 0.0 in
17:57 22.0 °F 16.5 °F 1026.0 in ESE 7.4 mph 7.4 mph 71 % 0.0 in
18:02 21.9 °F 16.6 °F 1026.0 in ESE 3.7 mph 4.2 mph 72 % 0.0 in
18:07 21.7 °F 16.7 °F 1026.0 in ESE 6.4 mph 6.4 mph 73 % 0.0 in
18:12 21.6 °F 16.6 °F 1026.0 in ESE 5.6 mph 5.6 mph 73 % 0.0 in
18:17 21.4 °F 16.3 °F 1026.0 in East 7.4 mph 7.4 mph 73 % 0.0 in
18:22 21.3 °F 16.5 °F 1026.0 in ESE 4.7 mph 4.7 mph 74 % 0.0 in
18:27 21.1 °F 16.3 °F 1026.0 in SE 5.6 mph 5.6 mph 74 % 0.0 in
18:32 21.0 °F 16.2 °F 1026.0 in ESE 5.6 mph 5.6 mph 74 % 0.0 in
18:37 20.8 °F 16.2 °F 1026.0 in ENE 5.6 mph 5.6 mph 75 % 0.0 in
18:42 20.7 °F 16.1 °F 1026.0 in ESE 5.6 mph 5.6 mph 75 % 0.0 in
18:47 20.6 °F 16.2 °F 1026.0 in ENE 3.7 mph 3.7 mph 76 % 0.0 in
18:52 20.5 °F 16.1 °F 1026.0 in NE 1.9 mph   76 % 0.0 in
18:57 20.4 °F 16.0 °F 1026.0 in Calm     76 % 0.0 in
19:02 20.3 °F 16.1 °F 1026.0 in Calm     77 % 0.0 in
19:07 20.2 °F 16.1 °F 1026.0 in Calm     77 % 0.0 in
19:12 20.1 °F 15.9 °F 1027.0 in Calm     77 % 0.0 in
19:17 19.9 °F 15.7 °F 1027.0 in Calm     77 % 0.0 in
19:22 19.8 °F 15.8 °F 1027.0 in Calm     78 % 0.0 in
19:27 19.7 °F 15.8 °F 1027.0 in WNW 3.2 mph   78 % 0.0 in
19:32 19.6 °F 15.7 °F 1027.0 in West 1.9 mph   78 % 0.0 in
19:37 19.5 °F 15.6 °F 1027.0 in WSW 3.7 mph   78 % 0.0 in
19:42 19.5 °F 15.6 °F 1027.0 in West 5.6 mph 5.6 mph 78 % 0.0 in
19:47 19.4 °F 15.4 °F 1027.0 in West 3.2 mph 3.2 mph 78 % 0.0 in
19:52 19.4 °F 15.4 °F 1027.0 in SW 2.3 mph 2.3 mph 78 % 0.0 in
19:57 19.3 °F 15.4 °F 1027.0 in WSW 2.3 mph 2.3 mph 78 % 0.0 in
20:02 19.2 °F 15.4 °F 1027.0 in WSW 3.7 mph   79 % 0.0 in
20:07 19.1 °F 15.4 °F 1027.0 in WSW 2.6 mph 2.6 mph 79 % 0.0 in
20:12 19.0 °F 15.3 °F 1027.0 in WSW 2.3 mph 2.3 mph 79 % 0.0 in
20:17 19.0 °F 15.3 °F 1027.0 in WSW 1.9 mph   79 % 0.0 in
20:22 18.8 °F 15.3 °F 1027.0 in Calm     80 % 0.0 in
20:27 18.7 °F 15.4 °F 1027.0 in Calm     81 % 0.0 in
20:32 18.6 °F 15.3 °F 1027.0 in Calm     81 % 0.0 in
20:37 18.5 °F 15.2 °F 1027.0 in Calm     81 % 0.0 in
20:42 18.5 °F 15.2 °F 1027.0 in Calm     81 % 0.0 in
20:47 18.4 °F 15.3 °F 1027.0 in Calm     82 % 0.0 in
20:52 18.3 °F 15.2 °F 1027.0 in Calm     82 % 0.0 in
20:57 18.2 °F 15.1 °F 1028.0 in Calm     82 % 0.0 in
21:02 18.2 °F 15.1 °F 1028.0 in Calm     82 % 0.0 in
21:07 18.1 °F 15.0 °F 1028.0 in Calm     82 % 0.0 in
21:12 18.1 °F 15.2 °F 1028.0 in Calm     83 % 0.0 in
21:17 18.0 °F 15.1 °F 1028.0 in Calm     83 % 0.0 in
21:22 18.0 °F 15.1 °F 1028.0 in Calm     83 % 0.0 in
21:27 17.8 °F 14.9 °F 1028.0 in WSW 1.9 mph 1.9 mph 83 % 0.0 in
21:32 17.8 °F 14.9 °F 1028.0 in Calm     83 % 0.0 in
21:37 17.6 °F 14.7 °F 1028.0 in Calm     83 % 0.0 in
21:42 17.5 °F 14.8 °F 1028.0 in Calm     84 % 0.0 in
21:47 17.3 °F 14.6 °F 1028.0 in Calm     84 % 0.0 in
21:52 17.3 °F 14.6 °F 1028.0 in WSW 2.3 mph 2.3 mph 84 % 0.0 in
21:57 17.1 °F 14.4 °F 1028.0 in SW 3.7 mph 3.7 mph 84 % 0.0 in
22:02 17.0 °F 14.3 °F 1028.0 in Calm     84 % 0.0 in
22:07 17.0 °F 14.4 °F 1028.0 in Calm     85 % 0.0 in
22:12 17.1 °F 14.6 °F 1028.0 in West 3.7 mph 3.7 mph 85 % 0.0 in
22:17 17.1 °F 14.6 °F 1028.0 in West 3.9 mph   85 % 0.0 in
22:22 17.2 °F 14.7 °F 1028.0 in WSW 3.7 mph 3.7 mph 85 % 0.0 in
22:27 17.2 °F 14.7 °F 1028.0 in WSW 2.3 mph   85 % 0.0 in
22:32 17.2 °F 14.8 °F 1028.0 in WSW 1.9 mph 1.9 mph 86 % 0.0 in
22:37 17.2 °F 14.8 °F 1028.0 in West 3.7 mph 3.7 mph 86 % 0.0 in
22:42 17.3 °F 14.9 °F 1028.0 in Calm     86 % 0.0 in
22:47 17.2 °F 14.8 °F 1028.0 in WSW 3.7 mph 3.7 mph 86 % 0.0 in
22:52 17.3 °F 15.1 °F 1028.0 in West 3.7 mph 3.7 mph 87 % 0.0 in
22:57 17.2 °F 15.0 °F 1028.0 in Calm     87 % 0.0 in
23:02 17.2 °F 15.0 °F 1028.0 in West 3.2 mph   87 % 0.0 in
23:07 17.3 °F 15.1 °F 1028.0 in WSW 3.7 mph 3.7 mph 87 % 0.0 in
23:12 17.2 °F 15.0 °F 1028.0 in WSW 3.7 mph 3.7 mph 87 % 0.0 in
23:17 17.2 °F 15.0 °F 1028.0 in WSW 3.9 mph 3.9 mph 87 % 0.0 in
23:22 17.1 °F 14.9 °F 1028.0 in SW 3.2 mph 3.2 mph 87 % 0.0 in
23:27 17.0 °F 14.8 °F 1028.0 in WSW 2.6 mph 2.6 mph 87 % 0.0 in
23:32 17.0 °F 14.8 °F 1028.0 in Calm     87 % 0.0 in
23:37 16.8 °F 14.8 °F 1028.0 in Calm     88 % 0.0 in
23:42 16.7 °F 14.7 °F 1028.0 in SW 3.7 mph 3.7 mph 88 % 0.0 in
23:47 16.7 °F 14.7 °F 1028.0 in SW 3.7 mph 3.7 mph 88 % 0.0 in
23:50 14.7 °F 13.6 °F 1026.0 in Calm     93 % 0.0 in
23:52 16.5 °F 14.5 °F 1028.0 in SW 3.7 mph 3.7 mph 88 % 0.0 in
23:57 16.4 °F 14.4 °F 1028.0 in SW 3.7 mph 3.7 mph 88 % 0.0 in
Meteo Sesrovires
Elogis d' Weather Underground - 1.5 mb

Guio original per  Jim McMurry - jmcmurry@mwt.net Adaptat per a la plantilla per  Wim van der Kuil - Leuven-Template.eu

Trobareu la nostra informacio del temps tambe a:

Weather Underground

AWEKAS